Time;durP1;ratioP1;P1;durP2;ratioP2;P2;SDS_P1;SDS_P2;PMS_P1;PMS_P2;Temp;Humidity;BMP_temperature;BMP_pressure;BME280_temperature;BME280_humidity;BME280_pressure;Samples;Min_cycle;Max_cycle;Signal;HPM_P1;HPM_P2
2022/09/26 00:05:27;;;;;;;3.13;2.78;;;;;;;-146.19;100.00;65364.44;10296589;28;20445;-52
2022/09/26 00:10:56;;;;;;;3.13;2.90;;;;;;;-146.19;100.00;65364.44;10295703;28;20047;-54
2022/09/26 00:16:16;;;;;;;2.90;2.70;;;;;;;-146.19;100.00;65364.44;10286021;28;20062;-54
2022/09/26 00:21:36;;;;;;;2.70;2.50;;;;;;;-146.19;100.00;65364.44;10295230;28;20057;-54
2022/09/26 00:26:55;;;;;;;2.97;2.67;;;;;;;-146.19;100.00;65364.44;10305067;28;20446;-53
2022/09/26 00:32:15;;;;;;;2.80;2.60;;;;;;;-146.19;100.00;65364.44;10285549;28;20391;-54
2022/09/26 00:37:34;;;;;;;2.80;2.60;;;;;;;-146.19;100.00;65364.44;10307721;28;20520;-54
2022/09/26 00:42:54;;;;;;;3.20;2.60;;;;;;;-146.19;100.00;65364.44;10316558;28;20050;-54
2022/09/26 00:48:13;;;;;;;2.70;2.50;;;;;;;-146.19;100.00;65364.44;10327898;28;20421;-54
2022/09/26 00:53:35;;;;;;;2.47;2.28;;;;;;;-146.19;100.00;65364.44;10326716;28;20045;-54
2022/09/26 00:59:07;;;;;;;2.90;2.53;;;;;;;-146.19;100.00;65364.44;10317336;28;20050;-54
2022/09/26 01:04:28;;;;;;;2.72;2.53;;;;;;;-146.19;100.00;65364.44;10327924;28;20046;-54
2022/09/26 01:09:48;;;;;;;2.60;2.40;;;;;;;-146.19;100.00;65364.44;10318005;28;20054;-54
2022/09/26 01:15:08;;;;;;;2.60;2.40;;;;;;;-146.19;100.00;65364.44;10309048;28;20566;-54
2022/09/26 01:20:41;;;;;;;2.40;2.20;;;;;;;-146.19;100.00;65364.44;10302633;28;20057;-54
2022/09/26 01:26:10;;;;;;;2.60;2.40;;;;;;;-146.19;100.00;65364.44;10316487;28;20054;-54
2022/09/26 01:31:40;;;;;;;2.50;2.30;;;;;;;-146.19;100.00;65364.44;10331616;28;20054;-53
2022/09/26 01:37:08;;;;;;;2.42;2.17;;;;;;;-146.19;100.00;65364.44;10316690;28;20050;-53
2022/09/26 01:42:37;;;;;;;2.58;2.38;;;;;;;-146.19;100.00;65364.44;10304232;28;20050;-53
2022/09/26 01:48:04;;;;;;;2.40;2.20;;;;;;;-146.19;100.00;65364.44;10307761;28;20061;-52
2022/09/26 01:53:32;;;;;;;2.65;2.35;;;;;;;-146.19;100.00;65364.44;10313676;28;20090;-53
2022/09/26 01:59:03;;;;;;;2.35;2.15;;;;;;;-146.19;100.00;65364.44;10302412;28;20042;-53
2022/09/26 02:04:27;;;;;;;2.30;2.10;;;;;;;-146.19;100.00;65364.44;10301981;28;20549;-53
2022/09/26 02:09:58;;;;;;;2.38;2.17;;;;;;;-146.19;100.00;65364.44;10284526;28;20050;-54
2022/09/26 02:15:18;;;;;;;2.40;2.20;;;;;;;-146.19;100.00;65364.44;10280882;28;20073;-54
2022/09/26 02:20:40;;;;;;;2.22;2.13;;;;;;;-146.19;100.00;65364.44;10291656;28;20054;-53
2022/09/26 02:26:01;;;;;;;2.50;2.30;;;;;;;-146.19;100.00;65364.44;10277441;28;20050;-53
2022/09/26 02:31:23;;;;;;;2.70;2.50;;;;;;;-146.19;100.00;65364.44;10287163;28;20047;-53
2022/09/26 02:36:43;;;;;;;2.33;2.13;;;;;;;-146.19;100.00;65364.44;10289494;28;20050;-54
2022/09/26 02:42:12;;;;;;;2.47;2.28;;;;;;;-146.19;100.00;65364.44;10306082;28;20409;-53
2022/09/26 02:47:47;;;;;;;2.33;2.13;;;;;;;-146.19;100.00;65364.44;10297772;28;20121;-54
2022/09/26 02:53:06;;;;;;;3.28;2.30;;;;;;;-146.19;100.00;65364.44;10288480;28;20058;-53
2022/09/26 02:58:52;;;;;;;2.70;2.50;;;;;;;-146.19;100.00;65364.44;10290869;28;20108;-54
2022/09/26 03:04:18;;;;;;;2.25;2.05;;;;;;;-146.19;100.00;65364.44;10301798;28;20047;-54
2022/09/26 03:09:40;;;;;;;2.28;2.10;;;;;;;-146.19;100.00;65364.44;10317765;28;20046;-53
2022/09/26 03:15:01;;;;;;;2.22;2.03;;;;;;;-146.19;100.00;65364.44;10317522;28;20050;-53
2022/09/26 03:20:21;;;;;;;2.47;2.28;;;;;;;-146.19;100.00;65364.44;10322155;28;20046;-54
2022/09/26 03:25:43;;;;;;;2.20;2.10;;;;;;;-146.19;100.00;65364.44;10308436;28;20051;-54
2022/09/26 03:31:06;;;;;;;2.38;2.17;;;;;;;-146.19;100.00;65364.44;10316095;28;20050;-53
2022/09/26 03:36:48;;;;;;;2.13;1.95;;;;;;;-146.19;100.00;65364.44;10334823;28;20054;-54
2022/09/26 03:42:09;;;;;;;2.25;2.05;;;;;;;-146.19;100.00;65364.44;10288099;28;20050;-53
2022/09/26 03:47:30;;;;;;;2.15;2.00;;;;;;;-146.19;100.00;65364.44;10326253;28;20050;-54
2022/09/26 03:52:50;;;;;;;2.78;2.10;;;;;;;-146.19;100.00;65364.44;10335984;28;20058;-53
2022/09/26 03:58:09;;;;;;;2.10;1.90;;;;;;;-146.19;100.00;65364.44;10330673;28;20109;-54
2022/09/26 04:03:32;;;;;;;2.20;2.10;;;;;;;-146.19;100.00;65364.44;10318746;28;20054;-54
2022/09/26 04:08:52;;;;;;;2.08;1.90;;;;;;;-146.19;100.00;65364.44;10333321;28;20057;-53
2022/09/26 04:14:12;;;;;;;3.13;2.40;;;;;;;-146.19;100.00;65364.44;10313964;28;20062;-54
2022/09/26 04:19:32;;;;;;;2.10;1.90;;;;;;;-146.19;100.00;65364.44;10322304;28;20072;-52
2022/09/26 04:24:53;;;;;;;2.10;1.85;;;;;;;-146.19;100.00;65364.44;10306941;28;20553;-54
2022/09/26 04:30:15;;;;;;;2.28;2.08;;;;;;;-146.19;100.00;65364.44;10282608;28;20054;-54
2022/09/26 04:35:40;;;;;;;1.92;1.75;;;;;;;-146.19;100.00;65364.44;10303867;28;20539;-53
2022/09/26 04:41:11;;;;;;;2.25;2.00;;;;;;;-146.19;100.00;65364.44;10300912;28;20426;-54
2022/09/26 04:46:30;;;;;;;1.80;1.70;;;;;;;-146.19;100.00;65364.44;10293562;28;20046;-54
2022/09/26 04:51:51;;;;;;;2.30;2.10;;;;;;;-146.19;100.00;65364.44;10279903;28;20062;-54
2022/09/26 04:57:13;;;;;;;2.85;1.80;;;;;;;-146.19;100.00;65364.44;10291969;28;20035;-53
2022/09/26 05:02:33;;;;;;;1.98;1.88;;;;;;;-146.19;100.00;65364.44;10289948;28;20055;-54
2022/09/26 05:07:53;;;;;;;3.70;2.10;;;;;;;-146.19;100.00;65364.44;10286177;28;20046;-53
2022/09/26 05:13:12;;;;;;;4.10;1.90;;;;;;;-146.19;100.00;65364.44;10315645;28;20423;-54
2022/09/26 05:18:34;;;;;;;2.63;2.03;;;;;;;-146.19;100.00;65364.44;10287097;28;20073;-54
2022/09/26 05:29:34;;;;;;;7.22;2.95;;;;;;;-146.19;100.00;65364.44;10271728;28;20077;-54
2022/09/26 05:34:56;;;;;;;5.75;2.92;;;;;;;-146.19;100.00;65364.44;10291418;28;20060;-54
2022/09/26 05:46:02;;;;;;;5.55;2.97;;;;;;;-146.19;100.00;65364.44;10326058;28;20039;-54
2022/09/26 05:51:28;;;;;;;6.63;3.10;;;;;;;-146.19;100.00;65364.44;10255207;28;20063;-54
2022/09/26 05:56:47;;;;;;;5.90;3.17;;;;;;;-146.19;100.00;65364.44;10281404;28;20557;-54
2022/09/26 06:02:26;;;;;;;7.05;3.10;;;;;;;-146.19;100.00;65364.44;10299553;28;20042;-53
2022/09/26 06:08:04;;;;;;;5.63;2.93;;;;;;;-146.19;100.00;65364.44;10301245;28;20061;-53
2022/09/26 06:13:46;;;;;;;6.75;3.08;;;;;;;-146.19;100.00;65364.44;10319796;28;20379;-53
2022/09/26 06:19:05;;;;;;;5.82;2.88;;;;;;;-146.19;100.00;65364.44;10291544;28;20061;-54
2022/09/26 06:24:25;;;;;;;4.78;2.92;;;;;;;-146.19;100.00;65364.44;10279585;28;20042;-54
2022/09/26 06:29:49;;;;;;;6.88;2.72;;;;;;;-146.19;100.00;65364.44;10297393;28;20054;-54
2022/09/26 06:35:08;;;;;;;3.20;2.45;;;;;;;-146.19;100.00;65364.44;10304060;28;20073;-53
2022/09/26 06:40:54;;;;;;;4.75;2.90;;;;;;;-146.19;100.00;65364.44;10299873;28;20129;-53
2022/09/26 06:46:14;;;;;;;5.65;2.78;;;;;;;-146.19;100.00;65364.44;10320638;28;20057;-55
2022/09/26 06:51:41;;;;;;;4.60;2.78;;;;;;;-146.19;100.00;65364.44;10300260;28;20054;-54
2022/09/26 06:57:01;;;;;;;3.47;2.60;;;;;;;-146.19;100.00;65364.44;10287894;28;20086;-54
2022/09/26 07:02:24;;;;;;;3.75;2.80;;;;;;;-146.19;100.00;65364.44;10313414;28;20089;-53
2022/09/26 07:08:11;;;;;;;4.25;2.72;;;;;;;-146.19;100.00;65364.44;10322736;28;20074;-54
2022/09/26 07:13:34;;;;;;;3.97;2.58;;;;;;;-146.19;100.00;65364.44;10330323;28;20064;-53
2022/09/26 07:18:54;;;;;;;6.63;2.38;;;;;;;-146.19;100.00;65364.44;10335356;28;20038;-53
2022/09/26 07:24:23;;;;;;;5.05;3.05;;;;;;;-146.19;100.00;65364.44;10316869;28;20125;-52
2022/09/26 07:29:47;;;;;;;3.35;2.58;;;;;;;-146.19;100.00;65364.44;10270873;28;20059;-54
2022/09/26 07:35:10;;;;;;;3.78;2.35;;;;;;;-146.19;100.00;65364.44;10313377;28;20070;-53
2022/09/26 07:40:30;;;;;;;4.97;2.58;;;;;;;-146.19;100.00;65364.44;10315789;28;20054;-53
2022/09/26 07:51:30;;;;;;;3.47;2.20;;;;;;;-146.19;100.00;65364.44;10301571;28;20090;-54
2022/09/26 07:56:50;;;;;;;3.47;2.55;;;;;;;-146.19;100.00;65364.44;10291423;28;20054;-54
2022/09/26 08:02:34;;;;;;;4.68;2.53;;;;;;;-146.19;100.00;65364.44;10333440;28;20050;-53
2022/09/26 08:07:56;;;;;;;3.83;2.53;;;;;;;-146.19;100.00;65364.44;10319232;28;20061;-53
2022/09/26 08:13:41;;;;;;;3.42;2.30;;;;;;;-146.19;100.00;65364.44;10284466;28;20081;-53
2022/09/26 08:19:29;;;;;;;5.45;2.47;;;;;;;-146.19;100.00;65364.44;10324206;28;20054;-54
2022/09/26 08:24:49;;;;;;;2.90;2.58;;;;;;;-146.19;100.00;65364.44;10315825;28;20113;-54
2022/09/26 08:30:30;;;;;;;4.55;2.45;;;;;;;-146.19;100.00;65364.44;10334037;28;20057;-53
2022/09/26 08:35:50;;;;;;;3.85;2.45;;;;;;;-146.19;100.00;65364.44;10319518;28;20054;-54
2022/09/26 08:42:29;;;;;;;3.20;2.30;;;;;;;-146.19;100.00;65364.44;10298051;28;20094;-51
2022/09/26 08:48:27;;;;;;;2.33;2.10;;;;;;;-146.19;100.00;65364.44;10280883;28;20414;-49
2022/09/26 08:54:11;;;;;;;1.88;1.73;;;;;;;-146.19;100.00;65364.44;10280109;28;20150;-50
2022/09/26 08:59:39;;;;;;;2.83;2.10;;;;;;;-146.19;100.00;65364.44;10294372;28;20406;-50
2022/09/26 09:05:08;;;;;;;2.55;2.17;;;;;;;-146.19;100.00;65364.44;10294951;28;20463;-51
2022/09/26 09:10:50;;;;;;;3.67;2.20;;;;;;;-146.19;100.00;65364.44;10320718;28;20057;-52
2022/09/26 09:16:44;;;;;;;3.05;2.13;;;;;;;-146.19;100.00;65364.44;10309786;28;20064;-51
2022/09/26 09:22:46;;;;;;;3.72;2.22;;;;;;;-146.19;100.00;65364.44;10296866;28;20047;-51
2022/09/26 09:28:35;;;;;;;3.20;2.22;;;;;;;-146.19;100.00;65364.44;10292627;28;20133;-52
2022/09/26 09:33:59;;;;;;;3.10;2.10;;;;;;;-146.19;100.00;65364.44;10302840;28;20103;-52
2022/09/26 09:39:39;;;;;;;3.25;2.30;;;;;;;-146.19;100.00;65364.44;10312688;28;20058;-52
2022/09/26 09:45:21;;;;;;;3.65;2.35;;;;;;;-146.19;100.00;65364.44;10304845;28;20051;-50
2022/09/26 09:51:05;;;;;;;2.30;2.03;;;;;;;-146.19;100.00;65364.44;10311270;28;20537;-52
2022/09/26 09:56:40;;;;;;;5.70;2.40;;;;;;;-146.19;100.00;65364.44;10316278;28;20049;-51
2022/09/26 10:02:14;;;;;;;2.00;1.80;;;;;;;-146.19;100.00;65364.44;10314584;28;20126;-51
2022/09/26 10:07:34;;;;;;;4.05;2.10;;;;;;;-146.19;100.00;65364.44;10316788;28;20097;-52
2022/09/26 10:13:16;;;;;;;2.05;1.88;;;;;;;-146.19;100.00;65364.44;10328776;28;20054;-51
2022/09/26 10:19:05;;;;;;;4.93;2.38;;;;;;;-146.19;100.00;65364.44;10332533;28;20082;-52
2022/09/26 10:24:42;;;;;;;7.50;2.90;;;;;;;-146.19;100.00;65364.44;10345243;28;20068;-52
2022/09/26 10:30:17;;;;;;;6.50;2.80;;;;;;;-146.19;100.00;65364.44;10287829;28;20115;-50
2022/09/26 10:35:38;;;;;;;5.63;2.63;;;;;;;-146.19;100.00;65364.44;10298985;28;20138;-50
2022/09/26 10:41:00;;;;;;;7.82;2.70;;;;;;;-146.19;100.00;65364.44;10312053;28;20062;-51
2022/09/26 10:46:24;;;;;;;4.60;2.50;;;;;;;-146.19;100.00;65364.44;10290367;28;20054;-51
2022/09/26 10:52:15;;;;;;;4.22;2.10;;;;;;;-146.19;100.00;65364.44;10311477;28;20081;-50
2022/09/26 10:57:38;;;;;;;3.33;1.98;;;;;;;-146.19;100.00;65364.44;10287442;28;20055;-51
2022/09/26 11:02:58;;;;;;;4.82;2.10;;;;;;;-146.19;100.00;65364.44;10270389;28;20561;-52
2022/09/26 11:08:20;;;;;;;3.30;1.90;;;;;;;-146.19;100.00;65364.44;10295500;28;20521;-52
2022/09/26 11:14:06;;;;;;;2.92;2.00;;;;;;;-146.19;100.00;65364.44;10297090;28;20046;-51
2022/09/26 11:19:43;;;;;;;2.55;2.28;;;;;;;-146.19;100.00;65364.44;10310966;28;20126;-52
2022/09/26 11:25:10;;;;;;;2.78;2.35;;;;;;;-146.19;100.00;65364.44;10282360;28;20635;-52
2022/09/26 11:30:31;;;;;;;3.15;2.40;;;;;;;-146.19;100.00;65364.44;10300195;28;20055;-52
2022/09/26 11:36:09;;;;;;;2.58;1.92;;;;;;;-146.19;100.00;65364.44;10317009;28;20054;-52
2022/09/26 11:41:45;;;;;;;1.95;1.85;;;;;;;-146.19;100.00;65364.44;10287298;28;20051;-52
2022/09/26 11:47:20;;;;;;;2.45;1.83;;;;;;;-146.19;100.00;65364.44;10308952;28;20078;-52
2022/09/26 11:53:08;;;;;;;2.30;1.75;;;;;;;-146.19;100.00;65364.44;10273797;28;20050;-52
2022/09/26 11:58:52;;;;;;;1.70;1.60;;;;;;;-146.19;100.00;65364.44;10310652;28;20047;-52
2022/09/26 12:04:37;;;;;;;2.25;1.50;;;;;;;-146.19;100.00;65364.44;10287022;28;20047;-52
2022/09/26 12:10:25;;;;;;;1.60;1.50;;;;;;;-146.19;100.00;65364.44;10295942;28;20055;-52
2022/09/26 12:15:54;;;;;;;3.17;1.70;;;;;;;-146.19;100.00;65364.44;10290275;28;20050;-51
2022/09/26 12:27:48;;;;;;;4.03;1.30;;;;;;;-146.19;100.00;65364.44;10293809;28;20054;-52
2022/09/26 12:33:43;;;;;;;2.08;1.33;;;;;;;-146.19;100.00;65364.44;10285269;28;20046;-52
2022/09/26 12:39:09;;;;;;;2.65;1.60;;;;;;;-146.19;100.00;65364.44;10296831;28;20058;-52
2022/09/26 12:44:50;;;;;;;3.28;1.42;;;;;;;-146.19;100.00;65364.44;10283506;28;20057;-52
2022/09/26 12:50:32;;;;;;;4.88;2.70;;;;;;;-146.19;100.00;65364.44;10295142;28;20077;-52
2022/09/26 12:55:54;;;;;;;6.45;2.33;;;;;;;-146.19;100.00;65364.44;10266477;28;20051;-54
2022/09/26 13:01:32;;;;;;;5.53;2.60;;;;;;;-146.19;100.00;65364.44;10289708;28;20061;-54
2022/09/26 13:06:58;;;;;;;5.53;3.03;;;;;;;-146.19;100.00;65364.44;10299548;28;20054;-55
2022/09/26 13:12:39;;;;;;;5.35;2.28;;;;;;;-146.19;100.00;65364.44;10314440;28;20046;-55
2022/09/26 13:18:04;;;;;;;5.13;2.35;;;;;;;-146.19;100.00;65364.44;10303548;28;20058;-54
2022/09/26 13:23:26;;;;;;;6.65;2.90;;;;;;;-146.19;100.00;65364.44;10295086;28;20066;-53
2022/09/26 13:28:53;;;;;;;5.25;2.22;;;;;;;-146.19;100.00;65364.44;10290416;28;20161;-54
2022/09/26 13:34:22;;;;;;;2.78;1.80;;;;;;;-146.19;100.00;65364.44;10291291;28;20142;-53
2022/09/26 13:39:51;;;;;;;2.45;1.60;;;;;;;-146.19;100.00;65364.44;10293222;28;20061;-53
2022/09/26 13:45:32;;;;;;;2.17;1.67;;;;;;;-146.19;100.00;65364.44;10286142;28;20062;-54
2022/09/26 13:50:56;;;;;;;2.65;1.40;;;;;;;-146.19;100.00;65364.44;10293473;28;20070;-52
2022/09/26 13:56:40;;;;;;;2.67;1.25;;;;;;;-146.19;100.00;65364.44;10276474;28;20077;-53
2022/09/26 14:02:23;;;;;;;1.40;1.13;;;;;;;-146.19;100.00;65364.44;10289712;28;20128;-53
2022/09/26 14:13:36;;;;;;;3.40;1.20;;;;;;;-146.19;100.00;65364.44;10315052;28;20104;-54
2022/09/26 14:18:58;;;;;;;1.63;1.20;;;;;;;-146.19;100.00;65364.44;10296208;28;20058;-53
2022/09/26 14:24:29;;;;;;;1.23;1.13;;;;;;;-146.19;100.00;65364.44;10290654;28;20178;-53
2022/09/26 14:29:51;;;;;;;1.40;1.00;;;;;;;-146.19;100.00;65364.44;10300711;28;20054;-52
2022/09/26 14:35:24;;;;;;;2.47;1.17;;;;;;;-146.19;100.00;65364.44;10290406;28;20062;-52
2022/09/26 14:40:54;;;;;;;1.42;0.90;;;;;;;-146.19;100.00;65364.44;10303918;28;20043;-53
2022/09/26 14:46:17;;;;;;;2.83;1.00;;;;;;;-146.19;100.00;65364.44;10264970;28;20058;-53
2022/09/26 14:51:40;;;;;;;2.08;1.20;;;;;;;-146.19;100.00;65364.44;10277959;28;20063;-53
2022/09/26 14:57:02;;;;;;;1.85;0.85;;;;;;;-146.19;100.00;65364.44;10275806;28;20055;-52
2022/09/26 15:02:25;;;;;;;2.83;0.93;;;;;;;-146.19;100.00;65364.44;10296611;28;20050;-52
2022/09/26 15:07:50;;;;;;;7.70;1.23;;;;;;;-146.19;100.00;65364.44;10290145;28;20058;-52
2022/09/26 15:13:24;;;;;;;4.85;1.02;;;;;;;-146.19;100.00;65364.44;10310418;28;20517;-53
2022/09/26 15:18:51;;;;;;;2.45;1.00;;;;;;;-146.19;100.00;65364.44;10283368;28;20058;-52
2022/09/26 15:24:22;;;;;;;2.17;0.80;;;;;;;-146.19;100.00;65364.44;10316133;28;20077;-54
2022/09/26 15:29:50;;;;;;;2.30;0.70;;;;;;;-146.19;100.00;65364.44;10295252;28;20054;-51
2022/09/26 15:35:11;;;;;;;1.83;0.90;;;;;;;-146.19;100.00;65364.44;10286050;28;20074;-52
2022/09/26 15:40:31;;;;;;;1.00;0.90;;;;;;;-146.19;100.00;65364.44;10296857;28;20055;-52
2022/09/26 15:45:58;;;;;;;2.05;0.80;;;;;;;-146.19;100.00;65364.44;10305947;28;20058;-53
2022/09/26 15:51:38;;;;;;;2.80;0.70;;;;;;;-146.19;100.00;65364.44;10300193;28;20453;-53
2022/09/26 15:57:00;;;;;;;3.65;0.88;;;;;;;-146.19;100.00;65364.44;10281547;28;20131;-53
2022/09/26 16:02:28;;;;;;;2.85;0.82;;;;;;;-146.19;100.00;65364.44;10282931;28;20055;-52
2022/09/26 16:07:50;;;;;;;1.73;1.00;;;;;;;-146.19;100.00;65364.44;10306167;28;20050;-52
2022/09/26 16:13:24;;;;;;;2.42;0.85;;;;;;;-146.19;100.00;65364.44;10321532;28;20042;-52
2022/09/26 16:18:52;;;;;;;5.97;1.10;;;;;;;-146.19;100.00;65364.44;10290631;28;20059;-53
2022/09/26 16:24:33;;;;;;;2.03;0.90;;;;;;;-146.19;100.00;65364.44;10313226;28;20376;-53
2022/09/26 16:29:52;;;;;;;1.23;0.93;;;;;;;-146.19;100.00;65364.44;10294927;28;20063;-53
2022/09/26 16:35:23;;;;;;;1.10;0.80;;;;;;;-146.19;100.00;65364.44;10323345;28;20046;-52
2022/09/26 16:40:49;;;;;;;2.13;0.90;;;;;;;-146.19;100.00;65364.44;10279810;28;20138;-53
2022/09/26 16:46:16;;;;;;;1.40;0.75;;;;;;;-146.19;100.00;65364.44;10297585;28;20065;-52
2022/09/26 16:51:37;;;;;;;1.02;0.80;;;;;;;-146.19;100.00;65364.44;10293666;28;20104;-53
2022/09/26 16:56:57;;;;;;;1.92;1.00;;;;;;;-146.19;100.00;65364.44;10293693;28;20050;-53
2022/09/26 17:02:16;;;;;;;1.30;1.00;;;;;;;-146.19;100.00;65364.44;10293374;28;20059;-53
2022/09/26 17:07:35;;;;;;;1.38;1.02;;;;;;;-146.19;100.00;65364.44;10308202;28;20062;-53
2022/09/26 17:12:55;;;;;;;1.70;1.10;;;;;;;-146.19;100.00;65364.44;10333852;28;20504;-51
2022/09/26 17:18:19;;;;;;;2.35;1.08;;;;;;;-146.19;100.00;65364.44;10332593;28;20058;-51
2022/09/26 17:23:39;;;;;;;2.15;1.40;;;;;;;-146.19;100.00;65364.44;10317356;28;20054;-54
2022/09/26 17:28:58;;;;;;;3.40;1.50;;;;;;;-146.19;100.00;65364.44;10290617;28;20043;-52
2022/09/26 17:34:17;;;;;;;2.97;1.30;;;;;;;-146.19;100.00;65364.44;10299247;28;20409;-53
2022/09/26 17:39:36;;;;;;;1.85;1.40;;;;;;;-146.19;100.00;65364.44;10294483;28;20047;-53
2022/09/26 17:44:56;;;;;;;1.40;1.30;;;;;;;-146.19;100.00;65364.44;10303727;28;20054;-52
2022/09/26 17:50:24;;;;;;;2.92;1.42;;;;;;;-146.19;100.00;65364.44;10323881;28;20046;-53
2022/09/26 17:55:43;;;;;;;1.48;1.25;;;;;;;-146.19;100.00;65364.44;10302941;28;20051;-53
2022/09/26 18:01:03;;;;;;;1.35;1.10;;;;;;;-146.19;100.00;65364.44;10297239;28;20060;-53
2022/09/26 18:06:26;;;;;;;2.30;1.48;;;;;;;-146.19;100.00;65364.44;10287173;28;20105;-52
2022/09/26 18:11:54;;;;;;;1.40;1.27;;;;;;;-146.19;100.00;65364.44;10304366;28;20046;-52
2022/09/26 18:17:14;;;;;;;1.67;1.40;;;;;;;-146.19;100.00;65364.44;10307264;28;20384;-53
2022/09/26 18:22:34;;;;;;;1.50;1.27;;;;;;;-146.19;100.00;65364.44;10291292;28;20133;-52
2022/09/26 18:27:55;;;;;;;1.77;1.25;;;;;;;-146.19;100.00;65364.44;10297397;28;20426;-52
2022/09/26 18:33:15;;;;;;;1.98;1.40;;;;;;;-146.19;100.00;65364.44;10297132;28;20059;-53
2022/09/26 18:38:35;;;;;;;2.17;1.60;;;;;;;-146.19;100.00;65364.44;10291250;28;20121;-52
2022/09/26 18:43:56;;;;;;;2.83;1.83;;;;;;;-146.19;100.00;65364.44;10302261;28;20078;-52
2022/09/26 18:49:16;;;;;;;3.17;1.58;;;;;;;-146.19;100.00;65364.44;10290418;28;20077;-53
2022/09/26 18:54:36;;;;;;;5.88;2.33;;;;;;;-146.19;100.00;65364.44;10308387;28;20051;-52
2022/09/26 18:59:57;;;;;;;5.63;2.28;;;;;;;-146.19;100.00;65364.44;10286498;28;20138;-53
2022/09/26 19:05:17;;;;;;;7.10;2.60;;;;;;;-146.19;100.00;65364.44;10298460;28;20481;-52
2022/09/26 19:10:38;;;;;;;6.82;2.67;;;;;;;-146.19;100.00;65364.44;10328397;28;20047;-53
2022/09/26 19:15:57;;;;;;;8.35;2.83;;;;;;;-146.19;100.00;65364.44;10315450;28;20047;-51
2022/09/26 19:21:33;;;;;;;7.28;3.20;;;;;;;-146.19;100.00;65364.44;10297559;28;20051;-52
2022/09/26 19:27:02;;;;;;;9.25;3.15;;;;;;;-146.19;100.00;65364.44;10284163;28;20098;-51
2022/09/26 19:32:45;;;;;;;8.93;3.20;;;;;;;-146.19;100.00;65364.44;10295465;28;20150;-53
2022/09/26 19:38:32;;;;;;;9.32;3.40;;;;;;;-146.19;100.00;65364.44;10304303;28;20454;-52
2022/09/26 19:43:52;;;;;;;7.78;3.20;;;;;;;-146.19;100.00;65364.44;10320003;28;20561;-52
2022/09/26 19:49:18;;;;;;;6.97;2.97;;;;;;;-146.19;100.00;65364.44;10298935;28;20058;-53
2022/09/26 19:54:38;;;;;;;8.00;2.92;;;;;;;-146.19;100.00;65364.44;10306616;28;20054;-52
2022/09/26 19:59:57;;;;;;;7.30;3.00;;;;;;;-146.19;100.00;65364.44;10295323;28;20068;-53
2022/09/26 20:05:24;;;;;;;6.80;2.90;;;;;;;-146.19;100.00;65364.44;10319848;28;20038;-53
2022/09/26 20:10:43;;;;;;;8.02;3.05;;;;;;;-146.19;100.00;65364.44;10309983;28;20127;-51
2022/09/26 20:16:03;;;;;;;8.77;3.45;;;;;;;-146.19;100.00;65364.44;10283774;28;20137;-53
2022/09/26 20:21:27;;;;;;;7.95;3.38;;;;;;;-146.19;100.00;65364.44;10294540;28;20058;-52
2022/09/26 20:26:47;;;;;;;6.82;2.90;;;;;;;-146.19;100.00;65364.44;10293492;28;20050;-54
2022/09/26 20:32:07;;;;;;;6.40;2.90;;;;;;;-146.19;100.00;65364.44;10299866;28;20054;-53
2022/09/26 20:37:32;;;;;;;4.85;2.78;;;;;;;-146.19;100.00;65364.44;10305785;28;20054;-53
2022/09/26 20:42:56;;;;;;;6.03;2.85;;;;;;;-146.19;100.00;65364.44;10318498;28;20445;-53
2022/09/26 20:48:23;;;;;;;5.43;2.80;;;;;;;-146.19;100.00;65364.44;10294360;28;20062;-52
2022/09/26 20:53:44;;;;;;;6.70;2.97;;;;;;;-146.19;100.00;65364.44;10282845;28;20074;-52
2022/09/26 20:59:04;;;;;;;7.93;2.80;;;;;;;-146.19;100.00;65364.44;10287227;28;20494;-53
2022/09/26 21:04:30;;;;;;;5.05;2.53;;;;;;;-146.19;100.00;65364.44;10293654;28;20055;-53
2022/09/26 21:09:49;;;;;;;5.35;2.40;;;;;;;-146.19;100.00;65364.44;10289265;28;20066;-52
2022/09/26 21:15:10;;;;;;;5.22;2.45;;;;;;;-146.19;100.00;65364.44;10312649;28;20049;-53
2022/09/26 21:20:31;;;;;;;5.88;2.53;;;;;;;-146.19;100.00;65364.44;10296060;28;20432;-53
2022/09/26 21:26:17;;;;;;;6.28;2.83;;;;;;;-146.19;100.00;65364.44;10272015;28;20573;-53
2022/09/26 21:31:36;;;;;;;5.40;2.42;;;;;;;-146.19;100.00;65364.44;10288489;28;20054;-53
2022/09/26 21:36:56;;;;;;;4.30;2.20;;;;;;;-146.19;100.00;65364.44;10296069;28;20050;-53
2022/09/26 21:42:15;;;;;;;3.38;2.10;;;;;;;-146.19;100.00;65364.44;10313534;28;20462;-52
2022/09/26 21:47:37;;;;;;;5.03;2.28;;;;;;;-146.19;100.00;65364.44;10291808;28;20565;-52
2022/09/26 21:53:06;;;;;;;4.47;2.45;;;;;;;-146.19;100.00;65364.44;10292216;28;20055;-53
2022/09/26 21:58:30;;;;;;;4.45;2.45;;;;;;;-146.19;100.00;65364.44;10280633;28;20055;-52
2022/09/26 22:03:50;;;;;;;5.60;2.40;;;;;;;-146.19;100.00;65364.44;10286745;28;20053;-53
2022/09/26 22:09:09;;;;;;;4.35;1.92;;;;;;;-146.19;100.00;65364.44;10292394;28;20069;-52
2022/09/26 22:14:29;;;;;;;4.07;2.13;;;;;;;-146.19;100.00;65364.44;10299322;28;20058;-53
2022/09/26 22:19:52;;;;;;;4.35;2.20;;;;;;;-146.19;100.00;65364.44;10294599;28;20698;-53
2022/09/26 22:25:11;;;;;;;4.75;2.20;;;;;;;-146.19;100.00;65364.44;10306892;28;20046;-53
2022/09/26 22:30:30;;;;;;;3.92;1.90;;;;;;;-146.19;100.00;65364.44;10289581;28;20055;-52
2022/09/26 22:35:50;;;;;;;3.28;2.00;;;;;;;-146.19;100.00;65364.44;10291456;28;20414;-52
2022/09/26 22:41:10;;;;;;;4.07;2.03;;;;;;;-146.19;100.00;65364.44;10293476;28;20495;-53
2022/09/26 22:46:32;;;;;;;5.78;2.35;;;;;;;-146.19;100.00;65364.44;10298086;28;20066;-52
2022/09/26 22:51:51;;;;;;;3.30;2.10;;;;;;;-146.19;100.00;65364.44;10290459;28;20051;-52
2022/09/26 22:57:10;;;;;;;3.58;1.85;;;;;;;-146.19;100.00;65364.44;10282633;28;20059;-52
2022/09/26 23:02:29;;;;;;;3.38;1.85;;;;;;;-146.19;100.00;65364.44;10303953;28;20510;-52
2022/09/26 23:07:53;;;;;;;3.40;1.92;;;;;;;-146.19;100.00;65364.44;10293567;28;20525;-52
2022/09/26 23:13:13;;;;;;;2.88;1.60;;;;;;;-146.19;100.00;65364.44;10295733;28;20046;-52
2022/09/26 23:18:33;;;;;;;2.58;1.45;;;;;;;-146.19;100.00;65364.44;10308631;28;20053;-53
2022/09/26 23:23:54;;;;;;;3.20;1.95;;;;;;;-146.19;100.00;65364.44;10293093;28;20043;-52
2022/09/26 23:29:14;;;;;;;2.85;1.75;;;;;;;-146.19;100.00;65364.44;10288132;28;20414;-53
2022/09/26 23:34:33;;;;;;;2.97;1.83;;;;;;;-146.19;100.00;65364.44;10297935;28;20051;-52
2022/09/26 23:39:53;;;;;;;2.55;1.70;;;;;;;-146.19;100.00;65364.44;10335968;28;20047;-53
2022/09/26 23:45:12;;;;;;;2.95;1.77;;;;;;;-146.19;100.00;65364.44;10310026;28;20119;-53
2022/09/26 23:50:32;;;;;;;3.20;2.17;;;;;;;-146.19;100.00;65364.44;10299324;28;20463;-52
2022/09/26 23:55:52;;;;;;;3.35;1.70;;;;;;;-146.19;100.00;65364.44;10286935;28;20458;-51
